NKS255 KFLL-KMCO
Flight info
| Callsign | NKS255 |
|---|---|
| Flight time | 0h 34m |
| Altitude | 22000 |
| Route | FRSBE2 WAPOM MUNGI1 |
| Aircraft | A320/M-SDE3FGHIRWY/LB1 |
Departure
| Time | 2026-05-04 00:05 |
|---|---|
| Airport | Fort Lauderdale Hollywood International Airport (KFLL) |
Arrival
| Time | 2026-05-04 00:40 |
|---|---|
| Airport | Orlando International Airport (KMCO) |
| Time | Latitude | Longitude | Altitude | Speed | Heading |
|---|---|---|---|---|---|
| 2026-05-03 22:30 | 26.06882 | -80.14341 | 16 ft | 0 kts | 359° |
| 2026-05-03 22:50 | 26.06879 | -80.14341 | 16 ft | 3 kts | 359° |
| 2026-05-03 22:50 | 26.06852 | -80.14339 | 17 ft | 4 kts | 350° |
| 2026-05-03 22:50 | 26.06827 | -80.14331 | 18 ft | 4 kts | 320° |
| 2026-05-03 22:51 | 26.06817 | -80.14315 | 16 ft | 0 kts | 271° |
| 2026-05-03 22:59 | 26.06817 | -80.14316 | 16 ft | 1 kts | 271° |
| 2026-05-03 23:00 | 26.06797 | -80.14358 | 17 ft | 11 kts | 242° |
| 2026-05-03 23:00 | 26.06772 | -80.14447 | 17 ft | 14 kts | 268° |
| 2026-05-03 23:00 | 26.06767 | -80.14561 | 15 ft | 16 kts | 266° |
| 2026-05-03 23:00 | 26.06765 | -80.14693 | 15 ft | 18 kts | 271° |
| 2026-05-03 23:01 | 26.06767 | -80.14842 | 15 ft | 20 kts | 270° |
| 2026-05-03 23:01 | 26.06768 | -80.15006 | 16 ft | 21 kts | 270° |
| 2026-05-03 23:01 | 26.06796 | -80.15125 | 16 ft | 15 kts | 332° |
| 2026-05-03 23:01 | 26.06905 | -80.15130 | 16 ft | 17 kts | 360° |
| 2026-05-03 23:02 | 26.07029 | -80.15129 | 16 ft | 19 kts | 0° |
| 2026-05-03 23:02 | 26.07168 | -80.15127 | 16 ft | 21 kts | 0° |
| 2026-05-03 23:02 | 26.07320 | -80.15127 | 16 ft | 23 kts | 0° |
| 2026-05-03 23:02 | 26.07452 | -80.15128 | 16 ft | 16 kts | 351° |
| 2026-05-03 23:03 | 26.07490 | -80.15232 | 16 ft | 17 kts | 270° |
| 2026-05-03 23:03 | 26.07491 | -80.15372 | 16 ft | 20 kts | 270° |
| 2026-05-03 23:03 | 26.07492 | -80.15532 | 16 ft | 22 kts | 270° |
| 2026-05-03 23:03 | 26.07493 | -80.15685 | 16 ft | 11 kts | 270° |
| 2026-05-03 23:04 | 26.07494 | -80.15723 | 16 ft | 0 kts | 272° |
| 2026-05-03 23:04 | 26.07494 | -80.15724 | 16 ft | 1 kts | 272° |
| 2026-05-03 23:04 | 26.07493 | -80.15780 | 16 ft | 9 kts | 269° |
| 2026-05-03 23:04 | 26.07493 | -80.15794 | 16 ft | 0 kts | 270° |
| 2026-05-03 23:05 | 26.07493 | -80.15806 | 16 ft | 3 kts | 270° |
| 2026-05-03 23:05 | 26.07493 | -80.15833 | 16 ft | 5 kts | 270° |
| 2026-05-03 23:05 | 26.07494 | -80.15860 | 16 ft | 2 kts | 270° |
| 2026-05-03 23:05 | 26.07494 | -80.15864 | 16 ft | 0 kts | 270° |
| 2026-05-03 23:09 | 26.07494 | -80.15879 | 16 ft | 4 kts | 270° |
| 2026-05-03 23:09 | 26.07494 | -80.15921 | 16 ft | 6 kts | 270° |
| 2026-05-03 23:09 | 26.07494 | -80.15953 | 16 ft | 0 kts | 270° |
| 2026-05-03 23:12 | 26.07494 | -80.15954 | 16 ft | 1 kts | 270° |
| 2026-05-03 23:12 | 26.07494 | -80.15966 | 16 ft | 2 kts | 271° |
| 2026-05-03 23:13 | 26.07494 | -80.15969 | 16 ft | 0 kts | 270° |
| 2026-05-03 23:13 | 26.07494 | -80.15970 | 16 ft | 1 kts | 270° |
| 2026-05-03 23:13 | 26.07494 | -80.15980 | 16 ft | 0 kts | 270° |
| 2026-05-03 23:14 | 26.07494 | -80.15982 | 16 ft | 0 kts | 270° |
| 2026-05-03 23:15 | 26.07494 | -80.15989 | 16 ft | 2 kts | 270° |
| 2026-05-03 23:15 | 26.07494 | -80.16025 | 16 ft | 7 kts | 270° |
| 2026-05-03 23:15 | 26.07495 | -80.16073 | 16 ft | 0 kts | 270° |
| 2026-05-03 23:16 | 26.07495 | -80.16074 | 16 ft | 0 kts | 270° |
| 2026-05-03 23:16 | 26.07495 | -80.16122 | 16 ft | 9 kts | 270° |
| 2026-05-03 23:16 | 26.07495 | -80.16159 | 16 ft | 2 kts | 270° |
| 2026-05-03 23:17 | 26.07495 | -80.16163 | 16 ft | 0 kts | 270° |
| 2026-05-03 23:18 | 26.07495 | -80.16188 | 16 ft | 0 kts | 270° |
| 2026-05-03 23:27 | 26.07495 | -80.16191 | 16 ft | 0 kts | 270° |
| 2026-05-03 23:34 | 26.07495 | -80.16199 | 16 ft | 3 kts | 270° |
| 2026-05-03 23:34 | 26.07495 | -80.16223 | 16 ft | 2 kts | 270° |
| 2026-05-03 23:35 | 26.07496 | -80.16229 | 16 ft | 0 kts | 271° |
| 2026-05-03 23:36 | 26.07496 | -80.16235 | 16 ft | 2 kts | 271° |
| 2026-05-03 23:36 | 26.07496 | -80.16254 | 16 ft | 3 kts | 271° |
| 2026-05-03 23:36 | 26.07496 | -80.16261 | 16 ft | 1 kts | 271° |
| 2026-05-03 23:36 | 26.07496 | -80.16262 | 16 ft | 0 kts | 271° |
| 2026-05-03 23:42 | 26.07496 | -80.16271 | 16 ft | 4 kts | 271° |
| 2026-05-03 23:43 | 26.07496 | -80.16314 | 16 ft | 6 kts | 269° |
| 2026-05-03 23:43 | 26.07496 | -80.16341 | 16 ft | 0 kts | 270° |
| 2026-05-03 23:43 | 26.07496 | -80.16349 | 16 ft | 2 kts | 270° |
| 2026-05-03 23:43 | 26.07496 | -80.16350 | 16 ft | 0 kts | 270° |
| 2026-05-03 23:47 | 26.07496 | -80.16352 | 16 ft | 1 kts | 270° |
| 2026-05-03 23:47 | 26.07496 | -80.16382 | 16 ft | 7 kts | 271° |
| 2026-05-03 23:47 | 26.07497 | -80.16415 | 16 ft | 2 kts | 270° |
| 2026-05-03 23:47 | 26.07497 | -80.16430 | 16 ft | 0 kts | 270° |
| 2026-05-03 23:48 | 26.07497 | -80.16432 | 16 ft | 0 kts | 270° |
| 2026-05-03 23:51 | 26.07497 | -80.16435 | 16 ft | 1 kts | 270° |
| 2026-05-03 23:51 | 26.07497 | -80.16452 | 16 ft | 3 kts | 270° |
| 2026-05-03 23:52 | 26.07497 | -80.16454 | 16 ft | 0 kts | 270° |
| 2026-05-03 23:53 | 26.07497 | -80.16464 | 16 ft | 2 kts | 270° |
| 2026-05-03 23:53 | 26.07497 | -80.16490 | 16 ft | 4 kts | 269° |
| 2026-05-03 23:53 | 26.07497 | -80.16505 | 16 ft | 0 kts | 269° |
| 2026-05-03 23:55 | 26.07497 | -80.16515 | 16 ft | 2 kts | 269° |
| 2026-05-03 23:55 | 26.07497 | -80.16523 | 16 ft | 0 kts | 271° |
| 2026-05-03 23:56 | 26.07497 | -80.16525 | 16 ft | 2 kts | 271° |
| 2026-05-03 23:56 | 26.07498 | -80.16580 | 16 ft | 8 kts | 270° |
| 2026-05-03 23:56 | 26.07498 | -80.16585 | 16 ft | 0 kts | 271° |
| 2026-05-03 23:58 | 26.07498 | -80.16592 | 16 ft | 3 kts | 271° |
| 2026-05-03 23:58 | 26.07506 | -80.16622 | 16 ft | 5 kts | 299° |
| 2026-05-03 23:58 | 26.07516 | -80.16632 | 17 ft | 0 kts | 320° |
| 2026-05-04 00:01 | 26.07543 | -80.16641 | 16 ft | 10 kts | 352° |
| 2026-05-04 00:01 | 26.07574 | -80.16642 | 16 ft | 0 kts | 358° |
| 2026-05-04 00:02 | 26.07582 | -80.16643 | -1 ft | 3 kts | 358° |
| 2026-05-04 00:02 | 26.07598 | -80.16643 | 24 ft | 0 kts | 359° |
| 2026-05-04 00:03 | 26.07610 | -80.16643 | 17 ft | 6 kts | 359° |
| 2026-05-04 00:03 | 26.07655 | -80.16643 | 18 ft | 7 kts | 5° |
| 2026-05-04 00:04 | 26.07693 | -80.16604 | 18 ft | 9 kts | 73° |
| 2026-05-04 00:04 | 26.07694 | -80.16580 | 18 ft | 1 kts | 89° |
| 2026-05-04 00:04 | 26.07694 | -80.16406 | 20 ft | 57 kts | 90° |
| 2026-05-04 00:04 | 26.07691 | -80.15717 | 17 ft | 118 kts | 90° |
| 2026-05-04 00:05 | 26.07682 | -80.14634 | 23 ft | 161 kts | 90° |
| 2026-05-04 00:05 | 26.07678 | -80.13351 | 413 ft | 173 kts | 88° |
| 2026-05-04 00:05 | 26.07674 | -80.11952 | 963 ft | 185 kts | 89° |
| 2026-05-04 00:05 | 26.07696 | -80.10502 | 1495 ft | 197 kts | 85° |
| 2026-05-04 00:06 | 26.08046 | -80.08972 | 1892 ft | 214 kts | 62° |
| 2026-05-04 00:06 | 26.08939 | -80.07592 | 2384 ft | 229 kts | 47° |
| 2026-05-04 00:06 | 26.10151 | -80.06330 | 2822 ft | 250 kts | 29° |
| 2026-05-04 00:06 | 26.11845 | -80.05735 | 3356 ft | 265 kts | 3° |
| 2026-05-04 00:07 | 26.13715 | -80.05566 | 3858 ft | 272 kts | 5° |
| 2026-05-04 00:07 | 26.15557 | -80.05068 | 4107 ft | 273 kts | 14° |
| 2026-05-04 00:07 | 26.17424 | -80.04816 | 4244 ft | 273 kts | 352° |
| 2026-05-04 00:07 | 26.19202 | -80.05416 | 4189 ft | 266 kts | 328° |
| 2026-05-04 00:08 | 26.20755 | -80.06521 | 4188 ft | 266 kts | 323° |
| 2026-05-04 00:08 | 26.22250 | -80.07720 | 4129 ft | 264 kts | 317° |
| 2026-05-04 00:08 | 26.23371 | -80.09307 | 4067 ft | 261 kts | 295° |
| 2026-05-04 00:08 | 26.24061 | -80.11172 | 4208 ft | 262 kts | 288° |
| 2026-05-04 00:09 | 26.24660 | -80.13108 | 4993 ft | 264 kts | 288° |
| 2026-05-04 00:09 | 26.25263 | -80.15034 | 5994 ft | 264 kts | 288° |
| 2026-05-04 00:09 | 26.26047 | -80.16858 | 6897 ft | 267 kts | 298° |
| 2026-05-04 00:09 | 26.27016 | -80.18638 | 7723 ft | 271 kts | 299° |
| 2026-05-04 00:10 | 26.28022 | -80.20425 | 8562 ft | 273 kts | 299° |
| 2026-05-04 00:10 | 26.29043 | -80.22219 | 9407 ft | 276 kts | 299° |
| 2026-05-04 00:10 | 26.30074 | -80.24030 | 10200 ft | 280 kts | 299° |
| 2026-05-04 00:10 | 26.31158 | -80.25938 | 10447 ft | 303 kts | 299° |
| 2026-05-04 00:11 | 26.32315 | -80.27983 | 10805 ft | 318 kts | 299° |
| 2026-05-04 00:11 | 26.33506 | -80.30082 | 11447 ft | 323 kts | 299° |
| 2026-05-04 00:11 | 26.34716 | -80.32211 | 12146 ft | 326 kts | 299° |
| 2026-05-04 00:11 | 26.35920 | -80.34326 | 12758 ft | 330 kts | 299° |
| 2026-05-04 00:12 | 26.37151 | -80.36497 | 12965 ft | 331 kts | 299° |
| 2026-05-04 00:12 | 26.38383 | -80.38664 | 13018 ft | 331 kts | 299° |
| 2026-05-04 00:12 | 26.39609 | -80.40827 | 13021 ft | 330 kts | 299° |
| 2026-05-04 00:12 | 26.40835 | -80.42993 | 13019 ft | 330 kts | 299° |
| 2026-05-04 00:13 | 26.42060 | -80.45162 | 13020 ft | 330 kts | 299° |
| 2026-05-04 00:13 | 26.43284 | -80.47328 | 13023 ft | 330 kts | 299° |
| 2026-05-04 00:13 | 26.44511 | -80.49495 | 13023 ft | 330 kts | 299° |
| 2026-05-04 00:13 | 26.45738 | -80.51664 | 13025 ft | 330 kts | 299° |
| 2026-05-04 00:14 | 26.46999 | -80.53805 | 13034 ft | 332 kts | 304° |
| 2026-05-04 00:14 | 26.48617 | -80.55655 | 13025 ft | 336 kts | 317° |
| 2026-05-04 00:14 | 26.50621 | -80.57033 | 13024 ft | 343 kts | 330° |
| 2026-05-04 00:14 | 26.52866 | -80.57880 | 13025 ft | 347 kts | 339° |
| 2026-05-04 00:15 | 26.55192 | -80.58613 | 13022 ft | 347 kts | 339° |
| 2026-05-04 00:15 | 26.57520 | -80.59349 | 13028 ft | 347 kts | 338° |
| 2026-05-04 00:15 | 26.59844 | -80.60082 | 13023 ft | 347 kts | 338° |
| 2026-05-04 00:15 | 26.62170 | -80.60818 | 13023 ft | 347 kts | 338° |
| 2026-05-04 00:16 | 26.64489 | -80.61556 | 13023 ft | 347 kts | 338° |
| 2026-05-04 00:16 | 26.66814 | -80.62298 | 13023 ft | 347 kts | 338° |
| 2026-05-04 00:16 | 26.69136 | -80.63038 | 13026 ft | 347 kts | 338° |
| 2026-05-04 00:16 | 26.71458 | -80.63776 | 13026 ft | 347 kts | 338° |
| 2026-05-04 00:17 | 26.73749 | -80.64504 | 13026 ft | 347 kts | 338° |
| 2026-05-04 00:17 | 26.76070 | -80.65243 | 13026 ft | 347 kts | 338° |
| 2026-05-04 00:17 | 26.78390 | -80.65983 | 13026 ft | 347 kts | 338° |
| 2026-05-04 00:17 | 26.80712 | -80.66724 | 13029 ft | 347 kts | 338° |
| 2026-05-04 00:18 | 26.83030 | -80.67463 | 13031 ft | 347 kts | 338° |
| 2026-05-04 00:18 | 26.85353 | -80.68205 | 13027 ft | 347 kts | 338° |
| 2026-05-04 00:18 | 26.87675 | -80.68946 | 13033 ft | 347 kts | 338° |
| 2026-05-04 00:18 | 26.89997 | -80.69688 | 13030 ft | 347 kts | 339° |
| 2026-05-04 00:19 | 26.92284 | -80.70434 | 13029 ft | 346 kts | 337° |
| 2026-05-04 00:19 | 26.94574 | -80.71257 | 13033 ft | 345 kts | 336° |
| 2026-05-04 00:19 | 26.96848 | -80.72125 | 13035 ft | 345 kts | 335° |
| 2026-05-04 00:19 | 26.99113 | -80.73009 | 13035 ft | 345 kts | 335° |
| 2026-05-04 00:20 | 27.01381 | -80.73893 | 13037 ft | 345 kts | 335° |
| 2026-05-04 00:20 | 27.03654 | -80.74771 | 13038 ft | 345 kts | 335° |
| 2026-05-04 00:20 | 27.05928 | -80.75640 | 13037 ft | 345 kts | 336° |
| 2026-05-04 00:20 | 27.08201 | -80.76501 | 13039 ft | 345 kts | 336° |
| 2026-05-04 00:21 | 27.10480 | -80.77363 | 13043 ft | 345 kts | 336° |
| 2026-05-04 00:21 | 27.12757 | -80.78226 | 13041 ft | 345 kts | 336° |
| 2026-05-04 00:21 | 27.15004 | -80.79075 | 13044 ft | 345 kts | 336° |
| 2026-05-04 00:21 | 27.17279 | -80.79940 | 13058 ft | 345 kts | 336° |
| 2026-05-04 00:22 | 27.19555 | -80.80806 | 13038 ft | 346 kts | 336° |
| 2026-05-04 00:22 | 27.21840 | -80.81675 | 13042 ft | 347 kts | 336° |
| 2026-05-04 00:22 | 27.24126 | -80.82544 | 13052 ft | 347 kts | 336° |
| 2026-05-04 00:22 | 27.26409 | -80.83410 | 13049 ft | 347 kts | 336° |
| 2026-05-04 00:23 | 27.28697 | -80.84277 | 13051 ft | 346 kts | 336° |
| 2026-05-04 00:23 | 27.30975 | -80.85145 | 13005 ft | 343 kts | 336° |
| 2026-05-04 00:23 | 27.33197 | -80.85988 | 12819 ft | 331 kts | 335° |
| 2026-05-04 00:23 | 27.35342 | -80.86820 | 12646 ft | 321 kts | 335° |
| 2026-05-04 00:24 | 27.37424 | -80.87644 | 12469 ft | 314 kts | 335° |
| 2026-05-04 00:24 | 27.39447 | -80.88456 | 12297 ft | 312 kts | 335° |
| 2026-05-04 00:24 | 27.41489 | -80.89277 | 12120 ft | 311 kts | 335° |
| 2026-05-04 00:24 | 27.43527 | -80.90096 | 11948 ft | 311 kts | 335° |
| 2026-05-04 00:25 | 27.45559 | -80.90911 | 11777 ft | 309 kts | 335° |
| 2026-05-04 00:25 | 27.47584 | -80.91719 | 11610 ft | 309 kts | 335° |
| 2026-05-04 00:25 | 27.49607 | -80.92525 | 11440 ft | 308 kts | 335° |
| 2026-05-04 00:25 | 27.51621 | -80.93326 | 11271 ft | 307 kts | 335° |
| 2026-05-04 00:26 | 27.53630 | -80.94128 | 11098 ft | 306 kts | 335° |
| 2026-05-04 00:26 | 27.55603 | -80.94918 | 10940 ft | 305 kts | 335° |
| 2026-05-04 00:26 | 27.57598 | -80.95716 | 10766 ft | 304 kts | 335° |
| 2026-05-04 00:26 | 27.59586 | -80.96512 | 10608 ft | 303 kts | 335° |
| 2026-05-04 00:27 | 27.61571 | -80.97308 | 10446 ft | 302 kts | 335° |
| 2026-05-04 00:27 | 27.63548 | -80.98101 | 10283 ft | 301 kts | 335° |
| 2026-05-04 00:27 | 27.65521 | -80.98891 | 10117 ft | 300 kts | 335° |
| 2026-05-04 00:27 | 27.67480 | -80.99673 | 9957 ft | 295 kts | 335° |
| 2026-05-04 00:28 | 27.69389 | -81.00431 | 9777 ft | 289 kts | 335° |
| 2026-05-04 00:28 | 27.71252 | -81.01176 | 9602 ft | 287 kts | 335° |
| 2026-05-04 00:28 | 27.73130 | -81.01927 | 9423 ft | 286 kts | 336° |
| 2026-05-04 00:28 | 27.75004 | -81.02677 | 9245 ft | 285 kts | 336° |
| 2026-05-04 00:29 | 27.76872 | -81.03426 | 9063 ft | 285 kts | 336° |
| 2026-05-04 00:29 | 27.78738 | -81.04171 | 8902 ft | 284 kts | 337° |
| 2026-05-04 00:29 | 27.80602 | -81.04916 | 8726 ft | 284 kts | 337° |
| 2026-05-04 00:29 | 27.82464 | -81.05664 | 8552 ft | 284 kts | 337° |
| 2026-05-04 00:30 | 27.84323 | -81.06410 | 8375 ft | 283 kts | 337° |
| 2026-05-04 00:30 | 27.86178 | -81.07154 | 8203 ft | 283 kts | 338° |
| 2026-05-04 00:30 | 27.88002 | -81.07886 | 8077 ft | 282 kts | 338° |
| 2026-05-04 00:30 | 27.89848 | -81.08627 | 8042 ft | 281 kts | 338° |
| 2026-05-04 00:31 | 27.91697 | -81.09368 | 8049 ft | 282 kts | 338° |
| 2026-05-04 00:31 | 27.93534 | -81.10149 | 8049 ft | 282 kts | 336° |
| 2026-05-04 00:31 | 27.95355 | -81.10971 | 8055 ft | 282 kts | 335° |
| 2026-05-04 00:31 | 27.97171 | -81.11815 | 8034 ft | 283 kts | 335° |
| 2026-05-04 00:32 | 27.98985 | -81.12660 | 7833 ft | 281 kts | 335° |
| 2026-05-04 00:32 | 28.00789 | -81.13493 | 7635 ft | 280 kts | 335° |
| 2026-05-04 00:32 | 28.02569 | -81.14310 | 7454 ft | 279 kts | 335° |
| 2026-05-04 00:32 | 28.04365 | -81.15134 | 7264 ft | 278 kts | 335° |
| 2026-05-04 00:33 | 28.06159 | -81.15951 | 7071 ft | 277 kts | 337° |
| 2026-05-04 00:33 | 28.09621 | -81.17704 | 6698 ft | 267 kts | 333° |
| 2026-05-04 00:33 | 28.11256 | -81.18656 | 6509 ft | 261 kts | 332° |
| 2026-05-04 00:34 | 28.12844 | -81.19616 | 6321 ft | 256 kts | 332° |
| 2026-05-04 00:34 | 28.14400 | -81.20561 | 6129 ft | 250 kts | 332° |
| 2026-05-04 00:34 | 28.15919 | -81.21485 | 5879 ft | 247 kts | 332° |
| 2026-05-04 00:34 | 28.17440 | -81.22402 | 5535 ft | 248 kts | 332° |
| 2026-05-04 00:35 | 28.18948 | -81.23308 | 5198 ft | 249 kts | 332° |
| 2026-05-04 00:35 | 28.20479 | -81.24226 | 4856 ft | 250 kts | 333° |
| 2026-05-04 00:35 | 28.22016 | -81.25149 | 4502 ft | 251 kts | 334° |
| 2026-05-04 00:35 | 28.23557 | -81.26073 | 4171 ft | 249 kts | 334° |
| 2026-05-04 00:36 | 28.25067 | -81.26982 | 3740 ft | 243 kts | 334° |
| 2026-05-04 00:36 | 28.26567 | -81.27831 | 3293 ft | 238 kts | 343° |
| 2026-05-04 00:36 | 28.28171 | -81.28093 | 2812 ft | 230 kts | 4° |
| 2026-05-04 00:36 | 28.29744 | -81.28105 | 2469 ft | 221 kts | 4° |
| 2026-05-04 00:37 | 28.31247 | -81.28125 | 2179 ft | 211 kts | 4° |
| 2026-05-04 00:37 | 28.32680 | -81.28141 | 1908 ft | 202 kts | 5° |
| 2026-05-04 00:37 | 28.34026 | -81.28155 | 1678 ft | 189 kts | 4° |
| 2026-05-04 00:37 | 28.35303 | -81.28168 | 1400 ft | 178 kts | 4° |
| 2026-05-04 00:38 | 28.36496 | -81.28181 | 1161 ft | 165 kts | 5° |
| 2026-05-04 00:38 | 28.37586 | -81.28192 | 987 ft | 146 kts | 4° |
| 2026-05-04 00:38 | 28.38567 | -81.28202 | 789 ft | 136 kts | 5° |
| 2026-05-04 00:38 | 28.39518 | -81.28197 | 584 ft | 135 kts | 5° |
| 2026-05-04 00:39 | 28.40146 | -81.28209 | 469 ft | 135 kts | 4° |
| 2026-05-04 00:39 | 28.41398 | -81.28227 | 237 ft | 133 kts | 5° |
| 2026-05-04 00:39 | 28.42301 | -81.28236 | 109 ft | 126 kts | 3° |
| 2026-05-04 00:39 | 28.42790 | -81.28240 | 104 ft | 76 kts | 359° |
| 2026-05-04 00:40 | 28.43214 | -81.28245 | 100 ft | 39 kts | 359° |
| 2026-05-04 00:40 | 28.43454 | -81.28267 | 101 ft | 29 kts | 341° |
| 2026-05-04 00:40 | 28.43543 | -81.28342 | 102 ft | 4 kts | 293° |
| 2026-05-04 00:40 | 28.43532 | -81.28367 | 103 ft | 5 kts | 218° |
| 2026-05-04 00:41 | 28.43484 | -81.28373 | 102 ft | 10 kts | 181° |
| 2026-05-04 00:41 | 28.43395 | -81.28375 | 99 ft | 15 kts | 181° |
| 2026-05-04 00:41 | 28.43320 | -81.28374 | 99 ft | 17 kts | 177° |
| 2026-05-04 00:41 | 28.43192 | -81.28366 | 101 ft | 19 kts | 176° |
| 2026-05-04 00:42 | 28.43055 | -81.28362 | 101 ft | 21 kts | 182° |
| 2026-05-04 00:42 | 28.42902 | -81.28368 | 101 ft | 23 kts | 179° |
| 2026-05-04 00:42 | 28.42739 | -81.28366 | 106 ft | 23 kts | 179° |
| 2026-05-04 00:42 | 28.42536 | -81.28375 | 107 ft | 17 kts | 217° |
| 2026-05-04 00:43 | 28.42497 | -81.28442 | 106 ft | 0 kts | 250° |